createdAt,value
2018-04-13T00:01:54.231Z,8.00
2018-04-13T00:04:22.814Z,8.00
2018-04-13T00:06:52.383Z,7.90
2018-04-13T00:09:20.850Z,7.90
2018-04-13T00:11:49.433Z,7.90
2018-04-13T00:14:17.958Z,7.90
2018-04-13T00:16:46.443Z,7.80
2018-04-13T00:19:15.206Z,7.90
2018-04-13T00:21:44.987Z,7.80
2018-04-13T00:24:13.447Z,7.90
2018-04-13T00:26:41.920Z,7.90
2018-04-13T00:29:10.489Z,7.80
2018-04-13T00:31:38.607Z,7.60
2018-04-13T00:34:07.030Z,7.60
2018-04-13T00:36:35.513Z,7.50
2018-04-13T00:39:03.075Z,7.60
2018-04-13T00:41:31.530Z,7.50
2018-04-13T00:44:00.018Z,7.50
2018-04-13T00:46:28.498Z,7.40
2018-04-13T00:48:57.384Z,7.40
2018-04-13T00:51:26.918Z,7.40
2018-04-13T00:53:55.427Z,7.20
2018-04-13T00:56:23.918Z,7.30
2018-04-13T00:58:53.171Z,7.40
2018-04-13T01:01:21.649Z,7.40
2018-04-13T01:03:50.135Z,7.40
2018-04-13T01:06:18.550Z,7.30
2018-04-13T01:08:47.041Z,7.30
2018-04-13T01:11:15.677Z,7.40
2018-04-13T01:13:44.144Z,7.40
2018-04-13T01:16:12.724Z,7.30
2018-04-13T01:18:41.319Z,7.30
2018-04-13T01:21:27.228Z,7.20
2018-04-13T01:23:55.731Z,7.30
2018-04-13T01:26:24.203Z,7.20
2018-04-13T01:28:52.726Z,7.30
2018-04-13T01:31:21.203Z,7.20
2018-04-13T01:33:49.705Z,7.10
2018-04-13T01:36:18.166Z,7.10
2018-04-13T01:38:46.587Z,7.00
2018-04-13T01:41:15.025Z,7.00
2018-04-13T01:43:43.519Z,6.90
2018-04-13T01:46:12.423Z,6.90
2018-04-13T01:48:40.960Z,6.90
2018-04-13T01:51:09.442Z,6.80
2018-04-13T01:53:37.952Z,6.60
2018-04-13T01:56:06.399Z,6.60
2018-04-13T01:58:34.865Z,6.40
2018-04-13T02:01:03.315Z,6.50
2018-04-13T02:03:32.547Z,6.40
2018-04-13T02:06:00.999Z,6.30
2018-04-13T02:08:29.478Z,6.40
2018-04-13T02:10:57.690Z,6.40
2018-04-13T02:13:26.980Z,6.50
2018-04-13T02:15:55.485Z,6.50
2018-04-13T02:18:23.632Z,6.50
2018-04-13T02:20:52.499Z,6.40
2018-04-13T02:23:20.941Z,6.30
2018-04-13T02:25:49.359Z,6.30
2018-04-13T02:28:17.494Z,6.20
2018-04-13T02:30:45.930Z,6.30
2018-04-13T02:33:14.403Z,6.30
2018-04-13T02:35:43.205Z,6.30
2018-04-13T02:38:11.679Z,6.30
2018-04-13T02:40:40.167Z,6.40
2018-04-13T02:43:09.003Z,6.40
2018-04-13T02:45:37.530Z,6.40
2018-04-13T02:48:06.061Z,6.40
2018-04-13T02:50:34.526Z,6.30
2018-04-13T02:53:03.386Z,6.30
2018-04-13T02:55:31.897Z,6.40
2018-04-13T02:58:00.410Z,6.30
2018-04-13T03:00:28.636Z,6.20
2018-04-13T03:02:57.090Z,6.30
2018-04-13T03:05:25.525Z,6.10
2018-04-13T03:07:54.009Z,6.20
2018-04-13T03:10:22.462Z,6.20
2018-04-13T03:12:50.974Z,6.20
2018-04-13T03:15:19.475Z,6.20
2018-04-13T03:17:48.935Z,6.00
2018-04-13T03:20:17.372Z,6.10
2018-04-13T03:22:45.854Z,6.20
2018-04-13T03:25:14.330Z,6.20
2018-04-13T03:27:42.810Z,6.20
2018-04-13T03:30:11.274Z,6.10
2018-04-13T03:32:39.380Z,6.10
2018-04-13T03:35:07.876Z,6.00
2018-04-13T03:37:36.308Z,6.10
2018-04-13T03:40:04.473Z,6.10
2018-04-13T03:42:32.904Z,6.10
2018-04-13T03:45:01.608Z,6.20
2018-04-13T03:47:30.066Z,6.30
2018-04-13T03:49:58.545Z,6.30
2018-04-13T03:52:27.057Z,6.30
2018-04-13T03:54:55.512Z,6.20
2018-04-13T03:57:24.011Z,6.10
2018-04-13T03:59:52.500Z,5.90
2018-04-13T04:02:20.966Z,5.80
2018-04-13T04:04:50.213Z,5.50
2018-04-13T04:07:19.034Z,5.50
2018-04-13T04:09:47.445Z,5.50
2018-04-13T04:12:15.922Z,5.50
2018-04-13T04:14:44.347Z,5.50
2018-04-13T04:17:13.061Z,5.50
2018-04-13T04:19:53.282Z,5.30
2018-04-13T04:22:33.051Z,5.30
2018-04-13T04:25:12.577Z,5.40
2018-04-13T04:27:41.518Z,5.50
2018-04-13T04:30:12.665Z,5.40
2018-04-13T04:32:41.186Z,5.70
2018-04-13T04:35:09.616Z,5.60
2018-04-13T04:37:38.065Z,5.70
2018-04-13T04:40:06.559Z,5.70
2018-04-13T04:42:34.996Z,5.70
2018-04-13T04:45:03.525Z,5.70
2018-04-13T04:47:32.011Z,5.80
2018-04-13T04:50:00.641Z,5.80
2018-04-13T04:52:29.842Z,6.00
2018-04-13T04:54:58.324Z,5.80
2018-04-13T04:57:27.575Z,6.10
2018-04-13T05:00:01.486Z,6.20
2018-04-13T05:02:30.008Z,6.20
2018-04-13T05:04:58.443Z,6.20
2018-04-13T05:07:26.900Z,6.20
2018-04-13T05:09:55.395Z,6.40
2018-04-13T05:12:23.870Z,6.40
2018-04-13T05:14:53.174Z,6.50
2018-04-13T05:17:21.750Z,6.50
2018-04-13T05:19:50.207Z,6.50
2018-04-13T05:22:18.698Z,6.60
2018-04-13T05:24:46.981Z,6.70
2018-04-13T05:27:15.541Z,6.80
2018-04-13T05:29:43.993Z,7.00
2018-04-13T05:32:12.406Z,7.00
2018-04-13T05:34:41.080Z,7.20
2018-04-13T05:37:09.595Z,7.20
2018-04-13T05:39:38.099Z,7.20
2018-04-13T05:42:06.566Z,7.40
2018-04-13T05:44:35.074Z,7.40
2018-04-13T05:47:03.571Z,7.60
2018-04-13T05:49:32.217Z,7.60
2018-04-13T05:52:02.700Z,7.70
2018-04-13T05:54:32.101Z,7.70
2018-04-13T05:57:00.672Z,7.90
2018-04-13T05:59:29.119Z,7.90
2018-04-13T06:01:57.618Z,8.10
2018-04-13T06:04:26.088Z,8.10
2018-04-13T06:06:54.465Z,8.30
2018-04-13T06:09:23.193Z,8.30
2018-04-13T06:11:51.674Z,8.40
2018-04-13T06:14:20.181Z,8.50
2018-04-13T06:16:48.724Z,8.50
2018-04-13T06:19:17.221Z,8.60
2018-04-13T06:21:46.495Z,8.70
2018-04-13T06:24:15.235Z,8.70
2018-04-13T06:26:43.754Z,8.70
2018-04-13T06:29:12.437Z,8.90
2018-04-13T06:31:40.774Z,8.90
2018-04-13T06:34:09.291Z,9.00
2018-04-13T06:36:38.530Z,9.00
2018-04-13T06:39:06.530Z,9.20
2018-04-13T06:41:35.235Z,9.20
2018-04-13T06:44:09.014Z,9.50
2018-04-13T06:56:55.104Z,10.30
2018-04-13T06:59:23.579Z,10.60
2018-04-13T07:01:52.099Z,10.70
2018-04-13T07:04:20.605Z,10.80
2018-04-13T07:06:48.797Z,11.00
2018-04-13T07:11:49.967Z,11.30
2018-04-13T07:14:18.422Z,11.40
2018-04-13T07:16:47.185Z,11.50
2018-04-13T07:19:16.606Z,11.80
2018-04-13T07:21:45.265Z,11.80
2018-04-13T07:24:13.834Z,12.00
2018-04-13T07:26:42.312Z,12.20
2018-04-13T07:29:10.936Z,12.40
2018-04-13T07:31:39.422Z,12.50
2018-04-13T07:34:07.895Z,12.70
2018-04-13T07:36:38.329Z,12.90
2018-04-13T07:39:06.729Z,13.00
2018-04-13T07:41:34.990Z,13.10
2018-04-13T07:44:04.297Z,13.20
2018-04-13T07:46:34.027Z,13.10
2018-04-13T07:51:32.471Z,13.30
2018-04-13T07:54:01.102Z,13.30
2018-04-13T07:56:29.550Z,13.40
2018-04-13T07:58:58.424Z,13.50
2018-04-13T08:01:26.866Z,13.60
2018-04-13T08:03:56.816Z,13.70
2018-04-13T08:06:24.974Z,13.80
2018-04-13T08:08:53.122Z,14.00
2018-04-13T08:11:21.527Z,14.20
2018-04-13T08:13:50.783Z,14.10
2018-04-13T08:16:19.045Z,14.00
2018-04-13T08:18:48.349Z,14.10
2018-04-13T08:21:16.808Z,14.10
2018-04-13T08:23:47.302Z,13.90
2018-04-13T08:26:17.920Z,13.80
2018-04-13T08:28:46.398Z,13.60
2018-04-13T08:31:16.494Z,13.50
2018-04-13T08:33:45.010Z,13.30
2018-04-13T08:36:13.539Z,13.50
2018-04-13T08:38:42.020Z,13.70
2018-04-13T08:41:10.636Z,14.00
2018-04-13T08:43:39.993Z,13.60
2018-04-13T08:46:08.488Z,13.60
2018-04-13T08:48:37.108Z,13.50
2018-04-13T08:51:05.705Z,13.60
2018-04-13T08:53:34.143Z,13.70
2018-04-13T08:56:03.318Z,14.00
2018-04-13T08:58:31.746Z,14.00
2018-04-13T09:01:01.193Z,13.90
2018-04-13T09:03:29.934Z,13.90
2018-04-13T09:05:58.188Z,13.90
2018-04-13T09:08:27.634Z,13.50
2018-04-13T09:11:12.076Z,13.40
2018-04-13T09:13:40.608Z,13.30
2018-04-13T09:16:09.115Z,13.30
2018-04-13T09:18:37.644Z,13.60
2018-04-13T09:21:12.307Z,13.60
2018-04-13T09:23:40.836Z,13.40
2018-04-13T09:26:09.523Z,13.30
2018-04-13T09:28:38.059Z,13.40
2018-04-13T09:31:06.360Z,13.50
2018-04-13T09:33:34.829Z,13.50
2018-04-13T09:36:03.334Z,13.50
2018-04-13T09:38:31.928Z,13.60
2018-04-13T09:41:00.439Z,13.60
2018-04-13T09:43:28.932Z,13.60
2018-04-13T09:45:58.053Z,13.50
2018-04-13T09:48:27.412Z,14.00
2018-04-13T09:50:55.945Z,14.00
2018-04-13T09:53:24.405Z,13.80
2018-04-13T09:55:52.888Z,13.50
2018-04-13T09:58:21.417Z,13.60
2018-04-13T10:01:02.351Z,13.70
2018-04-13T10:03:36.253Z,14.10
2018-04-13T10:06:04.867Z,14.50
2018-04-13T10:14:00.376Z,14.10
2018-04-13T10:16:29.724Z,13.90
2018-04-13T10:19:26.418Z,13.90
2018-04-13T10:29:27.102Z,14.40
2018-04-13T10:34:58.002Z,14.60
2018-04-13T10:40:34.656Z,14.20
2018-04-13T10:45:59.826Z,14.30
2018-04-13T10:48:28.174Z,14.40
2018-04-13T10:50:56.647Z,14.50
2018-04-13T10:53:38.133Z,14.60
2018-04-13T10:56:22.359Z,15.10
2018-04-13T11:01:35.832Z,15.40
2018-04-13T11:04:04.391Z,15.20
2018-04-13T11:06:32.893Z,15.10
2018-04-13T11:12:23.596Z,15.20
2018-04-13T11:14:58.064Z,15.10
2018-04-13T11:20:29.000Z,15.10
2018-04-13T11:23:00.929Z,15.20
2018-04-13T11:25:51.690Z,14.70
2018-04-13T11:28:20.550Z,14.60
2018-04-13T11:31:07.795Z,14.30
2018-04-13T11:33:36.359Z,14.30
2018-04-13T11:39:00.845Z,14.90
2018-04-13T11:41:35.397Z,15.10
2018-04-13T11:44:09.153Z,15.40
2018-04-13T11:46:41.816Z,15.40
2018-04-13T11:52:06.022Z,14.90
2018-04-13T11:54:34.571Z,14.90
2018-04-13T11:57:03.858Z,14.90
2018-04-13T12:02:40.252Z,15.10
2018-04-13T12:08:12.230Z,14.80
2018-04-13T12:10:40.871Z,15.00
2018-04-13T12:13:15.030Z,15.20
2018-04-13T12:18:49.045Z,15.60
2018-04-13T12:21:36.464Z,15.80
2018-04-13T12:24:04.967Z,15.70
2018-04-13T12:26:33.532Z,15.60
2018-04-13T12:29:02.326Z,15.70
2018-04-13T12:31:30.794Z,15.70
2018-04-13T12:34:08.098Z,15.50
2018-04-13T12:36:39.596Z,15.50
2018-04-13T12:42:10.603Z,15.60
2018-04-13T12:44:39.105Z,15.70
2018-04-13T12:47:29.118Z,15.60
2018-04-13T12:49:57.627Z,15.60
2018-04-13T12:52:33.928Z,15.70
2018-04-13T12:58:14.210Z,15.80
2018-04-13T13:00:55.372Z,15.80
2018-04-13T13:03:25.272Z,15.70
2018-04-13T13:09:07.471Z,15.90
2018-04-13T13:23:41.505Z,15.50
2018-04-13T13:26:10.034Z,15.70
2018-04-13T13:28:54.288Z,15.80
2018-04-13T13:31:23.089Z,15.90
2018-04-13T13:33:51.601Z,15.80
2018-04-13T13:36:20.099Z,16.00
2018-04-13T13:38:48.606Z,16.00
2018-04-13T13:41:17.074Z,16.20
2018-04-13T13:43:45.569Z,16.50
2018-04-13T13:46:13.788Z,16.80
2018-04-13T13:48:42.292Z,16.70
2018-04-13T13:51:10.830Z,16.80
2018-04-13T13:53:39.313Z,16.80
2018-04-13T13:56:07.812Z,16.70
2018-04-13T13:58:36.346Z,16.80
2018-04-13T14:01:04.851Z,16.70
2018-04-13T14:03:33.301Z,16.60
2018-04-13T14:06:01.791Z,16.30
2018-04-13T14:08:30.358Z,16.50
2018-04-13T14:10:58.852Z,15.80
2018-04-13T14:13:27.301Z,15.50
2018-04-13T14:15:55.816Z,15.70
2018-04-13T14:18:25.229Z,16.00
2018-04-13T14:20:53.726Z,16.00
2018-04-13T14:23:22.204Z,15.60
2018-04-13T14:25:50.727Z,15.40
2018-04-13T14:28:19.176Z,15.60
2018-04-13T14:30:47.675Z,15.70
2018-04-13T14:33:16.922Z,15.50
2018-04-13T14:35:45.088Z,15.30
2018-04-13T14:38:13.565Z,15.60
2018-04-13T14:40:42.002Z,16.00
2018-04-13T14:43:10.488Z,16.00
2018-04-13T14:45:40.984Z,15.50
2018-04-13T14:48:09.504Z,15.50
2018-04-13T14:50:38.062Z,15.90
2018-04-13T14:53:13.011Z,15.90
2018-04-13T14:55:42.673Z,15.60
2018-04-13T14:58:11.239Z,15.60
2018-04-13T15:00:39.778Z,15.40
2018-04-13T15:03:08.315Z,15.40
2018-04-13T15:05:36.788Z,15.50
2018-04-13T15:08:05.298Z,15.20
2018-04-13T15:10:34.790Z,15.00
2018-04-13T15:13:03.273Z,15.00
2018-04-13T15:15:31.760Z,15.00
2018-04-13T15:18:00.387Z,15.00
2018-04-13T15:20:28.899Z,15.10
2018-04-13T15:22:57.334Z,15.10
2018-04-13T15:25:25.632Z,14.90
2018-04-13T15:27:54.147Z,15.00
2018-04-13T15:30:22.703Z,14.80
2018-04-13T15:32:51.242Z,14.60
2018-04-13T15:35:19.778Z,14.80
2018-04-13T15:37:49.222Z,14.70
2018-04-13T15:40:17.708Z,14.70
2018-04-13T15:42:46.400Z,14.80
2018-04-13T15:45:14.967Z,14.70
2018-04-13T15:47:43.450Z,14.60
2018-04-13T15:50:11.986Z,14.70
2018-04-13T15:52:40.703Z,14.60
2018-04-13T15:55:09.240Z,14.70
2018-04-13T15:57:38.493Z,14.50
2018-04-13T17:23:57.636Z,13.80
2018-04-13T17:26:52.146Z,13.60
2018-04-13T17:29:21.811Z,13.50
2018-04-13T17:31:53.806Z,13.50
2018-04-13T17:37:14.299Z,13.40
2018-04-13T17:39:55.277Z,13.30
2018-04-13T17:42:23.870Z,13.30
2018-04-13T17:44:52.542Z,13.40
2018-04-13T17:47:22.159Z,13.40
2018-04-13T17:49:51.629Z,13.30
2018-04-13T17:52:20.309Z,13.20
2018-04-13T17:54:48.775Z,13.40
2018-04-13T17:57:17.305Z,13.20
2018-04-13T17:59:45.839Z,13.10
2018-04-13T18:05:23.368Z,13.10
2018-04-13T18:10:38.451Z,13.20
2018-04-13T18:16:21.391Z,13.10
2018-04-13T18:18:49.989Z,13.10
2018-04-13T18:21:18.648Z,13.10
2018-04-13T18:23:56.901Z,13.30
2018-04-13T18:26:25.428Z,13.30
2018-04-13T18:28:54.709Z,13.50
2018-04-13T18:31:50.922Z,13.40
2018-04-13T18:34:19.495Z,13.50
2018-04-13T18:37:27.075Z,13.30
2018-04-13T18:39:55.673Z,13.30
2018-04-13T18:42:24.501Z,13.30
2018-04-13T18:45:12.311Z,13.30
2018-04-13T18:47:58.647Z,13.30
2018-04-13T18:50:51.939Z,13.30
2018-04-13T18:53:20.483Z,13.30
2018-04-13T18:55:49.871Z,13.30
2018-04-13T18:58:18.453Z,13.20
2018-04-13T19:00:47.331Z,13.00
2018-04-13T19:03:38.601Z,13.00
2018-04-13T19:06:07.142Z,12.80
2018-04-13T19:17:21.373Z,12.70
